Dream Diva — 3EKW6 — position and weather

sailwx.info

Track history (hours):
 
Tides and Currents Weather Stations Pressure Air Temp Water Temp Dewpoint Dewpoint Depression Visibility Wind Speed Wind Dir Waves Ship Positions

Dream Diva

Last reported at 2017-Oct-10 11:42 UTC. Time now 2017-Oct-19 12:55 UTC.
Position S 36°17' E 174°57'.
Warning: this ship's position is 9 days out of date.

Length 186 m; draft 7.1 m.

Type: Cargo ship. MMSI: 372856000.

Date/timePositionNaut miles runAvg speedWind from/ knotsBaromVisibWave heightAir tempDewpointWater temp
2017-Oct-10 11:42S 36°17' E 174°57'211.4
2017-Oct-10 11:30S 36°19' E 174°58'5 9.9
2017-Oct-10 11:00S 36°24' E 174°59'510.0
2017-Oct-10 10:30S 36°29' E 174°59'510.1
2017-Oct-10 10:00S 36°34' E 174°58'5 9.6
2017-Oct-10 09:30S 36°38' E 174°56'510.3
2017-Oct-10 09:00S 36°42' E 174°52'510.1
2017-Oct-10 08:30S 36°47' E 174°48'4 7.2
2017-Oct-10 08:00S 36°50' E 174°48'1 2.9
2017-Oct-10 07:30S 36°50' E 174°46'0 0.0
2017-Oct-10 06:53S 36°50' E 174°46'0 0.0
2017-Oct-10 06:23S 36°50' E 174°46'0 0.0
2017-Oct-10 05:59S 36°50' E 174°46'0 0.0
2017-Oct-10 05:29S 36°50' E 174°46'0 0.0
2017-Oct-10 04:59S 36°50' E 174°46'0 0.0
2017-Oct-10 04:29S 36°50' E 174°46'0 0.0
2017-Oct-10 03:59S 36°50' E 174°46'0 0.0
2017-Oct-10 03:29S 36°50' E 174°46'0 0.0
2017-Oct-10 02:53S 36°50' E 174°46'0 0.0
2017-Oct-10 02:29S 36°50' E 174°46'0 0.0
2017-Oct-10 01:53S 36°50' E 174°46'0 0.0
2017-Oct-10 01:29S 36°50' E 174°46'0 0.0
2017-Oct-10 00:59S 36°50' E 174°46'0 0.0
2017-Oct-10 00:17S 36°50' E 174°46'0 0.0
2017-Oct-09 23:05S 36°50' E 174°46'0 0.0
2017-Oct-09 22:59S 36°50' E 174°46'0 0.0
2017-Oct-09 22:29S 36°50' E 174°46'0 0.0
2017-Oct-09 21:53S 36°50' E 174°46'0 0.0
2017-Oct-09 21:29S 36°50' E 174°46'0 0.0
2017-Oct-09 20:59S 36°50' E 174°46'0 0.0
2017-Oct-09 20:23S 36°50' E 174°46'0 0.0
2017-Oct-09 19:59S 36°50' E 174°46'0 0.0
2017-Oct-09 19:17S 36°50' E 174°46'0 0.0
2017-Oct-09 18:59S 36°50' E 174°46'0 0.0
2017-Oct-09 18:29S 36°50' E 174°46'0 0.0
2017-Oct-09 17:59S 36°50' E 174°46'0 0.0
2017-Oct-09 17:29S 36°50' E 174°46'0 0.4
2017-Oct-09 17:00S 36°50' E 174°47'2 4.6
2017-Oct-09 16:30S 36°50' E 174°49'611.2
2017-Oct-09 16:00S 36°44' E 174°50'2 3.0
2017-Oct-09 15:26S 36°43' E 174°51'0 0.1
2017-Oct-09 14:50S 36°43' E 174°51'0 0.0
2017-Oct-09 14:20S 36°43' E 174°51'0 0.0
2017-Oct-09 13:56S 36°43' E 174°51'0 0.0
2017-Oct-09 13:26S 36°43' E 174°51'0 0.0
2017-Oct-09 12:50S 36°43' E 174°51'0 0.0
2017-Oct-09 12:08S 36°43' E 174°51'0 0.3
2017-Oct-09 11:56S 36°43' E 174°51'0 0.0
2017-Oct-09 11:26S 36°43' E 174°51'0 0.1
2017-Oct-09 10:56S 36°43' E 174°51'0 0.1
2017-Oct-09 10:26S 36°43' E 174°51'0 0.1
2017-Oct-09 09:50S 36°43' E 174°51'0 0.0
2017-Oct-09 08:56S 36°43' E 174°51'0 0.1
2017-Oct-09 08:20S 36°43' E 174°51'0 0.1
2017-Oct-09 07:56S 36°43' E 174°51'0 0.0
2017-Oct-09 07:14S 36°43' E 174°51'0 0.1
2017-Oct-09 06:56S 36°43' E 174°51'0 0.0
2017-Oct-09 06:30S 36°43' E 174°51'0 0.0
2017-Oct-09 06:00S 36°43' E 174°51'0 0.0
2017-Oct-09 05:30S 36°43' E 174°51'0 0.1
2017-Oct-09 05:00S 36°43' E 174°51'0 0.1
2017-Oct-09 04:30S 36°43' E 174°51'0 0.0
2017-Oct-09 04:00S 36°43' E 174°51'0 0.1
2017-Oct-09 03:30S 36°43' E 174°51'1 2.1
2017-Oct-09 03:00S 36°42' E 174°52'4 8.5
2017-Oct-09 02:30S 36°39' E 174°55'5 9.5
2017-Oct-09 02:00S 36°34' E 174°57'510.1
2017-Oct-09 01:30S 36°29' E 174°58'5 9.9
2017-Oct-09 01:00S 36°24' E 174°58'5 9.9
2017-Oct-09 00:30S 36°19' E 174°57'5 9.8
2017-Oct-09 00:00S 36°15' E 174°57'  
Track history (hours):
 
Tides and Currents Weather Stations Pressure Air Temp Water Temp Dewpoint Dewpoint Depression Visibility Wind Speed Wind Dir Waves Ship Positions

Dream Diva

Last reported at 2017-Oct-10 11:42 UTC. Time now 2017-Oct-19 12:55 UTC.
Position S 36°17' E 174°57'.
Warning: this ship's position is 9 days out of date.

Length 186 m; draft 7.1 m.

Type: Cargo ship. MMSI: 372856000.

Date/timePositionNaut miles runAvg speedWind from/ knotsBaromVisibWave heightAir tempDewpointWater temp
2017-Oct-10 11:42S 36°17' E 174°57'211.4
2017-Oct-10 11:30S 36°19' E 174°58'5 9.9
2017-Oct-10 11:00S 36°24' E 174°59'510.0
2017-Oct-10 10:30S 36°29' E 174°59'510.1
2017-Oct-10 10:00S 36°34' E 174°58'5 9.6
2017-Oct-10 09:30S 36°38' E 174°56'510.3
2017-Oct-10 09:00S 36°42' E 174°52'510.1
2017-Oct-10 08:30S 36°47' E 174°48'4 7.2
2017-Oct-10 08:00S 36°50' E 174°48'1 2.9
2017-Oct-10 07:30S 36°50' E 174°46'0 0.0
2017-Oct-10 06:53S 36°50' E 174°46'0 0.0
2017-Oct-10 06:23S 36°50' E 174°46'0 0.0
2017-Oct-10 05:59S 36°50' E 174°46'0 0.0
2017-Oct-10 05:29S 36°50' E 174°46'0 0.0
2017-Oct-10 04:59S 36°50' E 174°46'0 0.0
2017-Oct-10 04:29S 36°50' E 174°46'0 0.0
2017-Oct-10 03:59S 36°50' E 174°46'0 0.0
2017-Oct-10 03:29S 36°50' E 174°46'0 0.0
2017-Oct-10 02:53S 36°50' E 174°46'0 0.0
2017-Oct-10 02:29S 36°50' E 174°46'0 0.0
2017-Oct-10 01:53S 36°50' E 174°46'0 0.0
2017-Oct-10 01:29S 36°50' E 174°46'0 0.0
2017-Oct-10 00:59S 36°50' E 174°46'0 0.0
2017-Oct-10 00:17S 36°50' E 174°46'0 0.0
2017-Oct-09 23:05S 36°50' E 174°46'0 0.0
2017-Oct-09 22:59S 36°50' E 174°46'0 0.0
2017-Oct-09 22:29S 36°50' E 174°46'0 0.0
2017-Oct-09 21:53S 36°50' E 174°46'0 0.0
2017-Oct-09 21:29S 36°50' E 174°46'0 0.0
2017-Oct-09 20:59S 36°50' E 174°46'0 0.0
2017-Oct-09 20:23S 36°50' E 174°46'0 0.0
2017-Oct-09 19:59S 36°50' E 174°46'0 0.0
2017-Oct-09 19:17S 36°50' E 174°46'0 0.0
2017-Oct-09 18:59S 36°50' E 174°46'0 0.0
2017-Oct-09 18:29S 36°50' E 174°46'0 0.0
2017-Oct-09 17:59S 36°50' E 174°46'0 0.0
2017-Oct-09 17:29S 36°50' E 174°46'0 0.4
2017-Oct-09 17:00S 36°50' E 174°47'2 4.6
2017-Oct-09 16:30S 36°50' E 174°49'611.2
2017-Oct-09 16:00S 36°44' E 174°50'2 3.0
2017-Oct-09 15:26S 36°43' E 174°51'0 0.1
2017-Oct-09 14:50S 36°43' E 174°51'0 0.0
2017-Oct-09 14:20S 36°43' E 174°51'0 0.0
2017-Oct-09 13:56S 36°43' E 174°51'0 0.0
2017-Oct-09 13:26S 36°43' E 174°51'0 0.0
2017-Oct-09 12:50S 36°43' E 174°51'0 0.0
2017-Oct-09 12:08S 36°43' E 174°51'0 0.3
2017-Oct-09 11:56S 36°43' E 174°51'0 0.0
2017-Oct-09 11:26S 36°43' E 174°51'0 0.1
2017-Oct-09 10:56S 36°43' E 174°51'0 0.1
2017-Oct-09 10:26S 36°43' E 174°51'0 0.1
2017-Oct-09 09:50S 36°43' E 174°51'0 0.0
2017-Oct-09 08:56S 36°43' E 174°51'0 0.1
2017-Oct-09 08:20S 36°43' E 174°51'0 0.1
2017-Oct-09 07:56S 36°43' E 174°51'0 0.0
2017-Oct-09 07:14S 36°43' E 174°51'0 0.1
2017-Oct-09 06:56S 36°43' E 174°51'0 0.0
2017-Oct-09 06:30S 36°43' E 174°51'0 0.0
2017-Oct-09 06:00S 36°43' E 174°51'0 0.0
2017-Oct-09 05:30S 36°43' E 174°51'0 0.1
2017-Oct-09 05:00S 36°43' E 174°51'0 0.1
2017-Oct-09 04:30S 36°43' E 174°51'0 0.0
2017-Oct-09 04:00S 36°43' E 174°51'0 0.1
2017-Oct-09 03:30S 36°43' E 174°51'1 2.1
2017-Oct-09 03:00S 36°42' E 174°52'4 8.5
2017-Oct-09 02:30S 36°39' E 174°55'5 9.5
2017-Oct-09 02:00S 36°34' E 174°57'510.1
2017-Oct-09 01:30S 36°29' E 174°58'5 9.9
2017-Oct-09 01:00S 36°24' E 174°58'5 9.9
2017-Oct-09 00:30S 36°19' E 174°57'5 9.8
2017-Oct-09 00:00S 36°15' E 174°57'  

Dump ship's entire track history